Time;durP1;ratioP1;P1;durP2;ratioP2;P2;SDS_P1;SDS_P2;PMS_P1;PMS_P2;Temp;Humidity;BMP_temperature;BMP_pressure;BME280_temperature;BME280_humidity;BME280_pressure;Samples;Min_cycle;Max_cycle;Signal;HPM_P1;HPM_P2
2022/04/05 02:12:19;;;;;;;17.37;11.30;;;8.80;80.90;;;;;;5071166;28;20121;-72
2022/04/05 02:14:44;;;;;;;12.90;10.73;;;8.80;80.60;;;;;;5073583;28;20143;-72
2022/04/05 02:17:11;;;;;;;13.77;10.17;;;8.80;80.50;;;;;;5074431;28;20035;-72
2022/04/05 02:19:38;;;;;;;15.47;10.77;;;8.80;80.70;;;;;;5073740;28;20032;-72
2022/04/05 02:22:04;;;;;;;15.83;11.17;;;8.80;80.60;;;;;;5072891;28;20055;-72
2022/04/05 02:24:30;;;;;;;17.13;12.10;;;8.80;81.00;;;;;;5072847;28;20028;-72
2022/04/05 02:26:56;;;;;;;21.90;12.07;;;8.70;81.50;;;;;;5074154;28;20028;-72
2022/04/05 02:29:21;;;;;;;21.97;11.43;;;8.70;82.00;;;;;;5073623;28;20040;-72
2022/04/05 02:31:47;;;;;;;15.17;10.93;;;8.70;82.40;;;;;;5073023;28;20033;-71
2022/04/05 02:34:13;;;;;;;17.57;12.00;;;8.70;82.60;;;;;;5073585;28;20444;-72
2022/04/05 02:36:39;;;;;;;17.33;12.13;;;8.70;82.80;;;;;;5073533;28;20489;-72
2022/04/05 02:39:05;;;;;;;14.93;10.33;;;8.70;82.70;;;;;;5073008;28;20440;-71
2022/04/05 02:41:31;;;;;;;14.80;11.10;;;8.70;82.80;;;;;;5072910;28;20119;-72
2022/04/05 02:43:58;;;;;;;14.97;10.53;;;8.70;82.90;;;;;;5072079;28;20111;-72
2022/04/05 02:46:24;;;;;;;12.37;9.57;;;8.70;82.70;;;;;;5073045;28;20543;-72
2022/04/05 02:48:53;;;;;;;14.30;10.03;;;8.70;82.50;;;;;;5074045;28;20033;-72
2022/04/05 02:51:18;;;;;;;17.87;10.27;;;8.60;82.70;;;;;;5072647;28;20115;-72
2022/04/05 02:53:44;;;;;;;13.70;9.60;;;8.60;82.60;;;;;;5071736;28;20556;-72
2022/04/05 02:56:10;;;;;;;14.47;10.43;;;8.60;82.80;;;;;;5073339;28;20491;-72
2022/04/05 02:58:36;;;;;;;15.97;10.57;;;8.60;82.90;;;;;;5073176;28;20032;-71
2022/04/05 03:01:03;;;;;;;17.93;9.93;;;8.60;83.00;;;;;;5074131;28;20047;-71
2022/04/05 03:03:29;;;;;;;19.90;10.10;;;8.70;83.00;;;;;;5073054;28;20036;-71
2022/04/05 03:05:54;;;;;;;22.90;10.37;;;8.60;83.00;;;;;;5073883;28;20127;-71
2022/04/05 03:08:20;;;;;;;21.33;9.80;;;8.70;83.50;;;;;;5073135;28;20040;-71
2022/04/05 03:10:46;;;;;;;29.27;10.33;;;8.60;83.70;;;;;;5072746;28;20056;-72
2022/04/05 03:13:12;;;;;;;20.77;9.83;;;8.60;83.80;;;;;;5073146;28;20029;-71
2022/04/05 03:15:37;;;;;;;21.73;9.40;;;8.60;84.20;;;;;;5072053;28;20051;-71
2022/04/05 03:18:03;;;;;;;19.80;9.93;;;8.60;84.30;;;;;;5073703;28;20115;-72
2022/04/05 03:20:31;;;;;;;15.07;9.73;;;8.60;84.40;;;;;;5073791;28;20047;-72
2022/04/05 03:22:59;;;;;;;20.70;9.83;;;8.60;84.80;;;;;;5072796;28;20060;-71
2022/04/05 03:25:24;;;;;;;15.27;9.20;;;8.60;85.10;;;;;;5073555;28;20033;-72
2022/04/05 03:27:50;;;;;;;13.47;9.47;;;8.60;85.00;;;;;;5073945;28;20286;-71
2022/04/05 03:30:19;;;;;;;17.77;10.47;;;8.60;85.00;;;;;;5073052;28;20025;-71
2022/04/05 03:32:45;;;;;;;13.67;9.23;;;8.60;84.60;;;;;;5071984;28;20488;-72
2022/04/05 03:35:10;;;;;;;16.23;9.23;;;8.60;84.10;;;;;;5073566;28;20036;-71
2022/04/05 03:37:36;;;;;;;15.60;9.03;;;8.60;84.20;;;;;;5073539;28;20047;-71
2022/04/05 03:40:04;;;;;;;13.27;9.83;;;8.60;83.90;;;;;;5073585;28;20041;-72
2022/04/05 03:42:29;;;;;;;13.83;9.07;;;8.60;83.40;;;;;;5074019;28;20548;-71
2022/04/05 03:44:55;;;;;;;12.83;9.03;;;8.60;83.50;;;;;;5073818;28;20124;-72
2022/04/05 03:47:21;;;;;;;14.93;9.27;;;8.60;84.10;;;;;;5074037;28;20079;-72
2022/04/05 03:49:47;;;;;;;12.13;8.93;;;8.60;84.50;;;;;;5073405;28;20150;-72
2022/04/05 03:52:13;;;;;;;12.33;9.00;;;8.60;84.40;;;;;;5073332;28;20504;-72
2022/04/05 03:54:38;;;;;;;17.00;9.67;;;8.60;84.60;;;;;;5073592;28;20051;-71
2022/04/05 03:57:04;;;;;;;14.50;9.50;;;8.60;84.70;;;;;;5073623;28;20033;-71
2022/04/05 03:59:30;;;;;;;14.43;9.33;;;8.60;84.40;;;;;;5073211;28;20036;-72
2022/04/05 04:01:56;;;;;;;17.83;9.00;;;8.60;84.40;;;;;;5073207;28;20392;-71
2022/04/05 04:04:21;;;;;;;14.80;8.77;;;8.60;84.20;;;;;;5073490;28;20477;-72
2022/04/05 04:06:47;;;;;;;12.37;7.90;;;8.60;83.80;;;;;;5073449;28;20491;-72
2022/04/05 04:09:13;;;;;;;14.80;8.67;;;8.60;84.10;;;;;;5073122;28;20496;-72
2022/04/05 04:11:41;;;;;;;20.43;9.33;;;8.60;84.70;;;;;;5072870;28;20053;-72
2022/04/05 04:14:07;;;;;;;19.93;9.03;;;8.50;84.80;;;;;;5072584;28;20461;-72
2022/04/05 04:16:34;;;;;;;17.70;9.27;;;8.60;84.30;;;;;;5072905;28;20110;-71
2022/04/05 04:18:59;;;;;;;20.50;7.90;;;8.60;83.80;;;;;;5072974;28;20063;-71
2022/04/05 04:21:25;;;;;;;21.07;9.07;;;8.60;83.90;;;;;;5072710;28;20032;-72
2022/04/05 04:23:51;;;;;;;15.70;7.77;;;8.60;83.40;;;;;;5073240;28;20032;-71
2022/04/05 04:26:17;;;;;;;15.93;7.77;;;8.60;82.80;;;;;;5072556;28;20108;-71
2022/04/05 04:28:42;;;;;;;15.27;8.23;;;8.60;83.20;;;;;;5072806;28;20057;-72
2022/04/05 04:31:08;;;;;;;14.33;6.97;;;8.60;83.20;;;;;;5072672;28;20059;-72
2022/04/05 04:33:34;;;;;;;13.20;7.63;;;8.50;83.20;;;;;;5072326;28;20343;-72
2022/04/05 04:36:00;;;;;;;13.90;7.80;;;8.50;83.30;;;;;;5071859;28;20040;-72
2022/04/05 04:38:25;;;;;;;12.13;7.20;;;8.50;83.30;;;;;;5072521;28;20037;-72
2022/04/05 04:40:52;;;;;;;14.70;6.97;;;8.50;83.20;;;;;;5072609;28;20032;-71
2022/04/05 04:43:18;;;;;;;13.03;6.50;;;8.40;83.90;;;;;;5072774;28;20032;-72
2022/04/05 04:45:45;;;;;;;12.93;6.93;;;8.40;84.30;;;;;;5072638;28;20033;-72
2022/04/05 04:48:11;;;;;;;11.83;7.03;;;8.40;84.70;;;;;;5072367;28;20028;-72
2022/04/05 04:50:37;;;;;;;11.83;7.80;;;8.40;85.00;;;;;;5072301;28;20029;-71
2022/04/05 04:53:03;;;;;;;12.33;6.93;;;8.30;84.60;;;;;;5072460;28;20096;-72
2022/04/05 04:55:29;;;;;;;10.37;6.70;;;8.30;84.90;;;;;;5072207;28;20044;-71
2022/04/05 04:57:56;;;;;;;14.47;7.40;;;8.30;85.70;;;;;;5072289;28;20473;-71
2022/04/05 05:00:21;;;;;;;9.80;6.87;;;8.20;85.90;;;;;;5071898;28;20469;-72
2022/04/05 05:02:49;;;;;;;9.70;6.60;;;8.20;86.00;;;;;;5072203;28;20031;-72
2022/04/05 05:05:21;;;;;;;13.13;6.97;;;8.20;85.30;;;;;;5072169;28;20067;-72
2022/04/05 05:07:49;;;;;;;11.23;6.77;;;8.20;85.10;;;;;;5071803;28;20032;-71
2022/04/05 05:10:16;;;;;;;11.07;6.17;;;8.30;85.00;;;;;;5072464;28;20095;-71
2022/04/05 05:12:42;;;;;;;9.57;6.70;;;8.30;84.80;;;;;;5072727;28;20033;-72
2022/04/05 05:15:09;;;;;;;9.23;5.97;;;8.30;84.40;;;;;;5072770;28;20510;-71
2022/04/05 05:17:35;;;;;;;15.10;6.40;;;8.30;84.20;;;;;;5072781;28;20060;-71
2022/04/05 05:20:02;;;;;;;13.20;6.23;;;8.30;84.20;;;;;;5072793;28;20093;-71
2022/04/05 05:22:28;;;;;;;10.10;6.00;;;8.30;84.60;;;;;;5072562;28;20056;-71
2022/04/05 05:24:54;;;;;;;7.57;5.67;;;8.30;84.50;;;;;;5072756;28;20440;-74
2022/04/05 05:27:19;;;;;;;13.63;5.93;;;8.30;85.30;;;;;;5072716;28;20056;-72
2022/04/05 05:29:45;;;;;;;11.77;6.33;;;8.30;85.90;;;;;;5072575;28;20455;-72
2022/04/05 05:32:11;;;;;;;12.20;7.07;;;8.40;86.20;;;;;;5072476;28;20039;-71
2022/04/05 05:34:36;;;;;;;12.50;6.83;;;8.40;86.20;;;;;;5072371;28;20045;-72
2022/04/05 05:37:03;;;;;;;12.77;6.57;;;8.40;86.10;;;;;;5072504;28;20025;-71
2022/04/05 05:39:29;;;;;;;13.43;7.00;;;8.40;85.70;;;;;;5071786;28;20033;-72
2022/04/05 05:41:55;;;;;;;12.20;7.30;;;8.40;85.60;;;;;;5071542;28;20041;-72
2022/04/05 05:44:22;;;;;;;10.77;7.20;;;8.50;85.30;;;;;;5071645;28;20571;-71
2022/04/05 05:46:48;;;;;;;14.90;7.00;;;8.40;85.10;;;;;;5074466;28;20489;-71
2022/04/05 05:49:14;;;;;;;14.77;7.30;;;8.50;85.10;;;;;;5075358;28;20076;-72
2022/04/05 05:51:40;;;;;;;9.93;7.10;;;8.50;84.90;;;;;;5075614;28;20037;-72
2022/04/05 05:54:05;;;;;;;14.43;7.13;;;8.50;85.00;;;;;;5075465;28;20448;-72
2022/04/05 05:56:31;;;;;;;13.20;7.20;;;8.50;85.40;;;;;;5075031;28;20125;-72
2022/04/05 05:58:57;;;;;;;14.87;7.90;;;8.50;85.70;;;;;;5075184;28;20467;-72
2022/04/05 06:01:25;;;;;;;18.20;8.17;;;8.60;85.80;;;;;;5075050;28;20477;-72
2022/04/05 06:03:51;;;;;;;11.87;7.23;;;8.60;85.30;;;;;;5075927;28;20021;-71
2022/04/05 06:06:17;;;;;;;14.77;8.27;;;8.60;85.30;;;;;;5075815;28;20386;-72
2022/04/05 06:08:43;;;;;;;19.20;9.57;;;8.70;85.40;;;;;;5075120;28;20079;-72
2022/04/05 06:11:10;;;;;;;16.27;9.10;;;8.70;85.20;;;;;;5074681;28;20061;-72
2022/04/05 06:13:36;;;;;;;16.07;8.53;;;8.70;85.40;;;;;;5075018;28;20039;-72
2022/04/05 06:16:03;;;;;;;14.20;8.80;;;8.80;85.20;;;;;;5073087;28;20484;-72
2022/04/05 06:18:28;;;;;;;16.03;8.23;;;8.80;85.40;;;;;;5075365;28;20366;-72
2022/04/05 06:20:54;;;;;;;12.43;7.80;;;8.90;85.50;;;;;;5075634;28;20090;-71
2022/04/05 06:23:20;;;;;;;11.90;7.00;;;8.90;85.40;;;;;;5074839;28;20032;-72
2022/04/05 06:25:45;;;;;;;11.23;7.20;;;9.00;85.10;;;;;;5074379;28;20042;-72
2022/04/05 06:28:11;;;;;;;8.40;6.83;;;9.00;85.10;;;;;;5075163;28;20107;-72
2022/04/05 06:30:38;;;;;;;11.40;7.07;;;9.00;85.10;;;;;;5074040;28;20035;-72
2022/04/05 06:33:12;;;;;;;9.57;7.00;;;9.10;84.80;;;;;;5074617;28;20060;-71
2022/04/05 06:35:44;;;;;;;10.43;6.97;;;9.20;85.10;;;;;;5066137;28;20486;-75
2022/04/05 06:38:11;;;;;;;13.25;6.70;;;9.20;85.50;;;;;;5053968;28;20048;-75
2022/04/05 06:40:37;;;;;;;14.03;7.20;;;9.30;85.30;;;;;;5054399;28;20033;-72
2022/04/05 06:43:03;;;;;;;10.67;6.00;;;9.30;85.00;;;;;;5054637;28;20032;-72
2022/04/05 06:45:29;;;;;;;10.10;6.70;;;9.30;84.80;;;;;;5054453;28;20033;-72
2022/04/05 06:47:55;;;;;;;11.73;7.80;;;9.40;84.70;;;;;;5054568;28;20137;-71
2022/04/05 06:50:24;;;;;;;9.33;7.17;;;9.40;84.80;;;;;;5054069;28;20437;-72
2022/04/05 06:52:52;;;;;;;9.67;7.87;;;9.50;84.90;;;;;;5053021;28;20080;-72
2022/04/05 06:55:18;;;;;;;13.30;7.40;;;9.50;83.50;;;;;;5035632;28;20433;-72
2022/04/05 06:57:43;;;;;;;12.00;7.67;;;9.60;82.90;;;;;;5053442;28;20033;-74
2022/04/05 07:00:11;;;;;;;10.57;7.60;;;9.60;83.00;;;;;;5054872;28;20029;-72
2022/04/05 07:02:39;;;;;;;11.87;7.87;;;9.70;83.60;;;;;;5054655;28;20064;-71
2022/04/05 07:05:06;;;;;;;19.40;9.17;;;9.70;82.90;;;;;;5036906;28;20385;-72
2022/04/05 07:07:31;;;;;;;13.77;8.57;;;9.70;82.70;;;;;;5054400;28;20501;-76
2022/04/05 07:09:57;;;;;;;9.90;8.13;;;9.80;83.30;;;;;;5054825;28;20080;-72
2022/04/05 07:12:26;;;;;;;16.53;7.63;;;9.80;82.70;;;;;;5035621;28;20045;-71
2022/04/05 07:14:51;;;;;;;17.03;8.23;;;9.80;82.60;;;;;;5034539;28;20045;-74
2022/04/05 07:17:18;;;;;;;9.33;6.83;;;9.90;82.50;;;;;;5034629;28;20493;-72
2022/04/05 07:19:44;;;;;;;10.90;6.73;;;9.90;81.90;;;;;;5034380;28;20068;-72
2022/04/05 07:22:10;;;;;;;8.43;5.97;;;9.90;81.50;;;;;;5034462;28;20113;-72
2022/04/05 07:24:35;;;;;;;8.43;6.47;;;9.90;80.70;;;;;;5034262;28;20116;-71
2022/04/05 07:27:01;;;;;;;11.77;7.23;;;10.00;81.00;;;;;;5034245;28;20038;-72
2022/04/05 07:29:27;;;;;;;9.03;6.60;;;10.00;80.10;;;;;;5034144;28;20034;-72
2022/04/05 07:31:53;;;;;;;12.00;6.37;;;10.10;81.90;;;;;;5033957;28;20029;-72
2022/04/05 07:34:18;;;;;;;8.13;5.87;;;10.10;80.80;;;;;;5032794;28;20363;-72
2022/04/05 07:36:44;;;;;;;11.40;6.17;;;10.20;80.70;;;;;;5032489;28;20041;-72
2022/04/05 07:39:10;;;;;;;7.75;5.97;;;10.30;80.70;;;;;;5032360;28;20033;-72
2022/04/05 07:41:36;;;;;;;10.27;5.40;;;10.30;79.90;;;;;;5050146;28;20115;-72
2022/04/05 07:44:02;;;;;;;8.85;4.63;;;10.40;79.00;;;;;;5051720;28;20025;-72
2022/04/05 07:46:28;;;;;;;8.43;4.13;;;10.50;78.90;;;;;;5053006;28;20025;-72
2022/04/05 07:48:53;;;;;;;11.17;4.53;;;10.50;78.90;;;;;;5052394;28;20037;-72
2022/04/05 07:51:19;;;;;;;7.57;4.50;;;10.60;78.10;;;;;;5052718;28;20053;-72
2022/04/05 07:53:45;;;;;;;8.77;4.27;;;10.60;78.80;;;;;;5052063;28;20040;-73
2022/04/05 07:56:12;;;;;;;11.17;4.37;;;10.70;79.00;;;;;;5052025;28;20041;-72
2022/04/05 07:58:40;;;;;;;7.30;4.55;;;10.80;77.90;;;;;;5052373;28;20021;-72
2022/04/05 08:01:07;;;;;;;7.85;4.63;;;10.90;78.70;;;;;;5050759;28;20033;-72
2022/04/05 08:03:34;;;;;;;8.95;5.90;;;10.90;77.30;;;;;;5052486;28;20036;-72
2022/04/05 08:06:00;;;;;;;7.15;5.18;;;11.00;77.10;;;;;;5052666;28;20600;-72
2022/04/05 08:08:26;;;;;;;5.38;4.40;;;11.00;77.00;;;;;;5052570;28;20033;-72
2022/04/05 08:10:51;;;;;;;7.10;5.10;;;11.10;77.00;;;;;;5059967;28;20118;-73
2022/04/05 08:13:17;;;;;;;8.57;5.75;;;11.20;76.90;;;;;;5073276;28;20032;-71
2022/04/05 08:15:43;;;;;;;14.23;8.98;;;11.30;77.30;;;;;;5073116;28;20048;-70
2022/04/05 08:18:09;;;;;;;12.20;8.68;;;11.20;75.90;;;;;;5073321;28;20048;-76
2022/04/05 08:20:36;;;;;;;9.50;6.90;;;11.30;75.10;;;;;;5073484;28;20033;-72
2022/04/05 08:23:03;;;;;;;12.57;9.57;;;11.30;75.30;;;;;;5072978;28;20419;-71
2022/04/05 08:25:29;;;;;;;14.70;12.45;;;11.30;75.30;;;;;;5045111;28;20044;-72
2022/04/05 08:27:55;;;;;;;14.18;10.85;;;11.30;74.90;;;;;;5072981;28;20028;-72
2022/04/05 08:30:21;;;;;;;14.87;11.53;;;11.30;74.60;;;;;;5072973;28;20038;-70
2022/04/05 08:32:48;;;;;;;15.20;11.80;;;11.30;75.10;;;;;;5073166;28;20361;-71
2022/04/05 08:35:19;;;;;;;15.82;12.10;;;11.30;75.50;;;;;;5073239;28;20044;-72
2022/04/05 08:37:45;;;;;;;13.10;10.95;;;11.20;75.60;;;;;;5072990;28;20033;-71
2022/04/05 08:40:17;;;;;;;16.33;10.95;;;11.30;74.80;;;;;;5072864;28;20086;-71
2022/04/05 08:42:47;;;;;;;12.57;10.43;;;11.20;74.30;;;;;;5072627;28;20033;-71
2022/04/05 08:45:14;;;;;;;11.93;10.65;;;11.20;74.30;;;;;;5072735;28;20045;-72
2022/04/05 08:47:48;;;;;;;13.40;11.20;;;11.20;74.20;;;;;;5073151;28;20033;-71
2022/04/05 08:50:21;;;;;;;12.20;9.75;;;11.20;74.40;;;;;;5072926;28;20070;-71
2022/04/05 08:52:47;;;;;;;13.32;10.95;;;11.20;74.70;;;;;;5072720;28;20032;-71
2022/04/05 08:55:14;;;;;;;16.67;10.85;;;11.10;74.80;;;;;;5073099;28;20044;-75
2022/04/05 08:57:40;;;;;;;15.32;11.15;;;11.10;74.80;;;;;;5072812;28;20491;-72
2022/04/05 09:00:08;;;;;;;14.93;12.50;;;11.10;75.00;;;;;;5073218;28;20029;-71
2022/04/05 09:02:34;;;;;;;17.40;11.18;;;11.10;74.50;;;;;;5072487;28;20108;-72
2022/04/05 09:04:59;;;;;;;12.45;10.40;;;11.00;74.60;;;;;;5072127;28;20107;-72
2022/04/05 09:07:29;;;;;;;20.77;12.77;;;11.00;74.70;;;;;;5073138;28;20503;-71
2022/04/05 09:10:10;;;;;;;17.92;12.13;;;11.00;74.40;;;;;;5073312;28;20025;-72
2022/04/05 09:12:51;;;;;;;12.23;10.95;;;11.00;74.40;;;;;;5072717;28;20044;-71
2022/04/05 09:15:16;;;;;;;15.15;11.05;;;10.90;74.40;;;;;;5072347;28;20044;-72
2022/04/05 09:17:44;;;;;;;12.18;10.73;;;10.90;74.70;;;;;;5072676;28;20033;-72
2022/04/05 09:20:11;;;;;;;11.85;10.10;;;10.90;75.70;;;;;;5072148;28;20060;-71
2022/04/05 09:22:38;;;;;;;21.45;11.48;;;10.90;75.10;;;;;;5072748;28;20040;-72
2022/04/05 09:25:07;;;;;;;12.27;9.90;;;10.90;75.60;;;;;;5072644;28;20043;-72
2022/04/05 09:28:09;;;;;;;12.05;9.38;;;10.90;75.70;;;;;;5072705;28;20044;-71
2022/04/05 09:30:36;;;;;;;11.80;9.47;;;10.90;76.30;;;;;;5031054;28;20038;-72
2022/04/05 09:33:04;;;;;;;13.02;10.15;;;10.90;76.40;;;;;;5064927;28;20263;-72
2022/04/05 09:35:40;;;;;;;13.07;9.40;;;10.90;76.20;;;;;;5072778;28;20054;-72
2022/04/05 09:38:16;;;;;;;13.50;10.05;;;10.90;76.10;;;;;;5072534;28;20079;-72
2022/04/05 09:40:42;;;;;;;12.93;11.10;;;10.90;76.20;;;;;;5073262;28;20045;-72
2022/04/05 09:43:14;;;;;;;13.73;10.07;;;10.90;75.60;;;;;;5072887;28;20044;-72
2022/04/05 09:46:00;;;;;;;17.45;9.98;;;10.90;76.00;;;;;;5072697;28;20075;-71
2022/04/05 09:48:29;;;;;;;14.02;10.05;;;10.90;76.30;;;;;;5072437;28;20439;-72
2022/04/05 09:51:10;;;;;;;14.38;10.05;;;10.90;76.30;;;;;;5072677;28;20099;-72
2022/04/05 09:53:38;;;;;;;13.32;10.50;;;10.90;76.30;;;;;;5072877;28;20040;-72
2022/04/05 09:56:19;;;;;;;13.70;9.77;;;10.80;76.20;;;;;;5072774;28;20048;-72
2022/04/05 09:58:54;;;;;;;11.60;9.88;;;10.90;76.10;;;;;;5072692;28;20582;-72
2022/04/05 10:01:25;;;;;;;14.23;10.27;;;10.90;76.10;;;;;;5072439;28;20427;-72
2022/04/05 10:04:17;;;;;;;14.23;10.10;;;10.90;76.20;;;;;;5072379;28;20024;-72
2022/04/05 10:06:49;;;;;;;14.02;10.30;;;10.90;76.20;;;;;;5070550;28;20094;-72
2022/04/05 10:09:19;;;;;;;11.95;9.73;;;10.90;76.00;;;;;;5072394;28;20032;-72
2022/04/05 10:11:45;;;;;;;12.55;10.32;;;10.90;76.40;;;;;;5072176;28;20055;-72
2022/04/05 10:14:14;;;;;;;13.50;9.40;;;10.90;76.40;;;;;;5072103;28;20119;-71
2022/04/05 10:16:43;;;;;;;13.77;10.18;;;11.00;77.10;;;;;;5072315;28;20519;-73
2022/04/05 10:19:11;;;;;;;14.50;10.43;;;11.00;76.20;;;;;;5072001;28;20059;-71
2022/04/05 10:21:41;;;;;;;15.52;9.85;;;11.00;75.60;;;;;;5071890;28;20039;-72
2022/04/05 10:24:08;;;;;;;12.95;10.02;;;11.00;75.70;;;;;;5072042;28;20033;-72
2022/04/05 10:26:36;;;;;;;12.43;9.02;;;11.00;75.50;;;;;;5072231;28;20068;-72
2022/04/05 10:29:07;;;;;;;13.52;9.90;;;11.00;75.10;;;;;;5072115;28;20032;-72
2022/04/05 10:31:43;;;;;;;11.65;9.73;;;11.10;75.20;;;;;;5072600;28;20040;-72
2022/04/05 10:34:18;;;;;;;13.60;10.32;;;11.10;75.20;;;;;;5075463;28;20028;-72
2022/04/05 10:37:07;;;;;;;15.70;10.52;;;11.20;75.30;;;;;;5075434;28;20087;-72
2022/04/05 10:39:33;;;;;;;14.77;11.10;;;11.20;76.40;;;;;;5075620;28;20033;-72
2022/04/05 10:42:11;;;;;;;15.70;11.45;;;11.30;75.20;;;;;;5075602;28;20042;-72
2022/04/05 10:44:46;;;;;;;14.63;11.00;;;11.40;74.80;;;;;;5075640;28;20048;-71
2022/04/05 10:47:12;;;;;;;12.93;10.68;;;11.50;74.40;;;;;;5075606;28;20476;-76
2022/04/05 10:49:44;;;;;;;14.70;11.68;;;11.60;74.10;;;;;;5075609;28;20043;-72
2022/04/05 10:52:17;;;;;;;15.95;11.90;;;11.60;73.70;;;;;;5075379;28;20120;-71
2022/04/05 10:55:11;;;;;;;12.85;10.73;;;11.70;73.00;;;;;;5075286;28;20127;-72
2022/04/05 10:57:38;;;;;;;15.10;10.32;;;11.70;73.10;;;;;;5076018;28;20419;-72
2022/04/05 11:00:07;;;;;;;14.85;11.15;;;11.70;73.20;;;;;;5075704;28;20039;-72
2022/04/05 11:02:35;;;;;;;13.75;10.65;;;11.70;73.90;;;;;;5075045;28;20194;-72
2022/04/05 11:05:24;;;;;;;14.43;10.68;;;11.70;73.50;;;;;;5075043;28;20087;-72
2022/04/05 11:07:58;;;;;;;14.57;10.07;;;11.70;73.60;;;;;;5075662;28;20115;-72
2022/04/05 11:10:44;;;;;;;12.82;10.63;;;11.60;73.30;;;;;;5075289;28;20036;-72
2022/04/05 11:13:14;;;;;;;12.02;10.35;;;11.60;73.60;;;;;;5075181;28;20500;-72
2022/04/05 11:15:46;;;;;;;11.82;10.48;;;11.60;73.40;;;;;;5075015;28;20143;-72
2022/04/05 11:18:17;;;;;;;12.95;9.77;;;11.60;73.10;;;;;;5075190;28;20033;-72
2022/04/05 11:20:45;;;;;;;16.10;11.02;;;11.50;73.30;;;;;;5074382;28;20068;-73
2022/04/05 11:23:12;;;;;;;16.10;12.25;;;11.50;73.40;;;;;;5074368;28;20029;-74
2022/04/05 11:25:38;;;;;;;13.63;11.20;;;11.50;73.40;;;;;;5074627;28;20107;-73
2022/04/05 11:28:21;;;;;;;17.42;11.77;;;11.50;73.10;;;;;;5074525;28;20083;-73
2022/04/05 11:30:51;;;;;;;;;;;11.50;73.10;;;;;;5075255;28;20032;-72
2022/04/05 11:33:26;;;;;;;13.13;11.10;;;11.50;73.00;;;;;;5075091;28;19904;-72
2022/04/05 11:36:07;;;;;;;13.73;12.00;;;11.60;72.90;;;;;;5074517;28;20052;-72
2022/04/05 11:38:47;;;;;;;17.02;12.30;;;11.60;73.00;;;;;;5074490;28;20024;-74
2022/04/05 11:41:23;;;;;;;14.98;12.35;;;11.60;72.90;;;;;;5074462;28;20032;-73
2022/04/05 11:43:57;;;;;;;15.73;12.55;;;11.60;72.80;;;;;;5074394;28;20040;-73
2022/04/05 11:46:28;;;;;;;15.40;12.20;;;11.60;72.90;;;;;;5074169;28;20059;-72
2022/04/05 11:49:00;;;;;;;16.13;11.82;;;11.60;72.90;;;;;;5074372;28;20064;-71
2022/04/05 11:51:34;;;;;;;17.90;12.57;;;11.60;72.80;;;;;;5073999;28;20392;-72
2022/04/05 11:54:10;;;;;;;16.77;12.18;;;11.60;72.90;;;;;;5074251;28;20037;-72
2022/04/05 11:56:41;;;;;;;17.83;12.55;;;11.70;73.10;;;;;;5074061;28;20135;-72
2022/04/05 11:59:08;;;;;;;15.90;12.73;;;11.70;73.10;;;;;;5074118;28;20101;-72
2022/04/05 12:01:37;;;;;;;14.20;12.02;;;11.70;72.80;;;;;;5073961;28;20032;-73
2022/04/05 12:04:13;;;;;;;18.42;12.38;;;11.70;72.90;;;;;;5073764;28;20033;-72
2022/04/05 12:06:45;;;;;;;19.48;12.68;;;11.70;73.00;;;;;;5074326;28;20040;-72
2022/04/05 12:09:13;;;;;;;14.98;11.93;;;11.80;73.00;;;;;;5074137;28;20388;-72
2022/04/05 12:11:41;;;;;;;14.93;11.57;;;11.80;73.00;;;;;;5073550;28;20040;-72
2022/04/05 12:14:09;;;;;;;17.63;13.48;;;11.80;73.00;;;;;;5073617;28;20142;-72
2022/04/05 12:17:00;;;;;;;15.00;12.82;;;11.80;72.90;;;;;;5073593;28;20055;-75
2022/04/05 12:19:28;;;;;;;17.35;12.52;;;11.80;73.10;;;;;;5073838;28;20043;-76
2022/04/05 12:22:01;;;;;;;18.00;12.77;;;11.80;73.30;;;;;;5073543;28;20058;-76
2022/04/05 12:24:27;;;;;;;;;;;11.80;72.90;;;;;;5074096;28;20041;-76
2022/04/05 12:26:59;;;;;;;15.40;13.10;;;11.80;73.10;;;;;;5073517;28;20248;-77
2022/04/05 12:29:25;;;;;;;14.82;13.00;;;11.80;72.60;;;;;;5073667;28;20044;-75
2022/04/05 12:31:53;;;;;;;15.68;13.43;;;11.80;72.30;;;;;;5072819;28;20047;-76
2022/04/05 12:34:20;;;;;;;17.27;13.80;;;11.80;71.80;;;;;;5072599;28;20408;-76
2022/04/05 12:36:47;;;;;;;18.23;13.65;;;11.80;71.60;;;;;;5072393;28;20033;-77
2022/04/05 12:39:24;;;;;;;16.33;13.32;;;11.80;71.90;;;;;;5060324;28;20489;-76
2022/04/05 12:41:53;;;;;;;19.35;12.93;;;11.80;71.80;;;;;;5063646;28;20476;-75
2022/04/05 12:44:26;;;;;;;19.58;13.98;;;11.80;71.70;;;;;;5055525;28;20033;-74
2022/04/05 12:46:52;;;;;;;;;;;11.80;71.40;;;;;;5061821;28;20029;-72
2022/04/05 12:49:38;;;;;;;16.02;12.07;;;11.80;71.30;;;;;;5062758;28;19905;-73
2022/04/05 12:52:24;;;;;;;17.13;13.95;;;11.90;71.60;;;;;;5062501;28;20133;-73
2022/04/05 12:54:53;;;;;;;15.88;13.38;;;11.80;71.70;;;;;;5042092;28;20555;-72
2022/04/05 12:57:26;;;;;;;17.15;13.82;;;11.80;71.60;;;;;;5061756;28;20040;-72
2022/04/05 12:59:54;;;;;;;19.90;13.77;;;11.80;71.40;;;;;;5070898;28;20546;-73
2022/04/05 13:02:23;;;;;;;21.42;15.07;;;11.80;70.80;;;;;;5073069;28;20116;-73
2022/04/05 13:04:49;;;;;;;21.08;14.15;;;11.80;69.90;;;;;;5065442;28;20088;-72
2022/04/05 13:07:15;;;;;;;17.02;14.07;;;11.80;69.70;;;;;;5052368;28;20104;-73
2022/04/05 13:09:42;;;;;;;17.30;13.85;;;11.80;69.30;;;;;;5052050;28;20060;-73
2022/04/05 13:12:10;;;;;;;18.67;14.65;;;11.80;69.10;;;;;;5052204;28;20044;-74
2022/04/05 13:14:36;;;;;;;16.35;14.35;;;11.80;68.90;;;;;;5052476;28;20037;-72
2022/04/05 13:17:03;;;;;;;17.50;13.75;;;11.80;69.10;;;;;;5052932;28;20036;-73
2022/04/05 13:19:29;;;;;;;16.58;14.80;;;11.90;69.30;;;;;;5052423;28;20028;-73
2022/04/05 13:21:55;;;;;;;20.92;14.73;;;11.90;68.60;;;;;;5055014;28;20037;-72
2022/04/05 13:24:25;;;;;;;18.13;13.77;;;11.80;68.00;;;;;;5052630;28;20112;-73
2022/04/05 13:26:54;;;;;;;16.83;14.57;;;11.90;68.20;;;;;;5052833;28;20575;-73
2022/04/05 13:29:24;;;;;;;16.42;14.52;;;11.90;66.60;;;;;;5051055;28;20049;-73
2022/04/05 13:31:54;;;;;;;17.80;13.68;;;11.90;66.70;;;;;;5051856;28;20037;-73
2022/04/05 13:34:25;;;;;;;18.40;14.77;;;11.90;67.20;;;;;;5051367;28;20128;-73
2022/04/05 13:36:54;;;;;;;18.08;15.20;;;12.00;67.60;;;;;;5052518;28;20379;-71
2022/04/05 13:39:21;;;;;;;17.65;14.50;;;12.00;67.30;;;;;;5052610;28;20076;-72
2022/04/05 13:41:47;;;;;;;19.58;14.85;;;12.00;67.80;;;;;;5052405;28;20072;-72
2022/04/05 13:44:13;;;;;;;18.08;13.98;;;12.00;67.20;;;;;;5052313;28;20057;-74
2022/04/05 13:46:40;;;;;;;18.58;14.55;;;12.00;66.70;;;;;;5050021;28;20055;-72
2022/04/05 13:49:10;;;;;;;18.23;14.57;;;12.10;66.40;;;;;;5052176;28;20033;-73
2022/04/05 13:51:45;;;;;;;17.45;14.00;;;12.20;67.80;;;;;;5054039;28;20021;-72
2022/04/05 13:54:11;;;;;;;19.42;14.82;;;12.20;67.50;;;;;;5072003;28;20115;-73
2022/04/05 13:56:38;;;;;;;18.40;14.10;;;12.20;66.10;;;;;;5072321;28;20045;-72
2022/04/05 13:59:05;;;;;;;18.65;15.13;;;12.20;66.70;;;;;;5072209;28;20480;-72
2022/04/05 14:01:32;;;;;;;17.45;13.68;;;12.20;67.00;;;;;;5071103;28;20029;-72
2022/04/05 14:03:57;;;;;;;18.52;13.98;;;12.20;66.90;;;;;;5052056;28;20029;-72
2022/04/05 14:06:24;;;;;;;17.65;13.70;;;12.20;67.30;;;;;;5052204;28;20037;-73
2022/04/05 14:08:50;;;;;;;17.85;14.45;;;12.30;67.80;;;;;;5056023;28;20033;-73
2022/04/05 14:11:16;;;;;;;18.58;13.43;;;12.30;67.50;;;;;;5045522;28;20049;-73
2022/04/05 14:13:41;;;;;;;17.58;13.57;;;12.40;66.30;;;;;;5034721;28;20029;-73
2022/04/05 14:16:08;;;;;;;19.17;14.93;;;12.40;66.50;;;;;;5035403;28;20061;-73
2022/04/05 14:18:35;;;;;;;17.63;14.52;;;12.40;65.40;;;;;;5035255;28;20048;-73
2022/04/05 14:21:00;;;;;;;18.20;14.63;;;12.40;64.70;;;;;;5035055;28;20037;-73
2022/04/05 14:23:26;;;;;;;17.73;13.93;;;12.40;65.50;;;;;;5035265;28;20034;-73
2022/04/05 14:25:52;;;;;;;16.15;13.77;;;12.50;65.60;;;;;;5034984;28;20497;-73
2022/04/05 14:28:18;;;;;;;21.23;14.65;;;12.50;66.20;;;;;;5035650;28;20030;-73
2022/04/05 14:30:43;;;;;;;17.35;13.98;;;12.50;65.10;;;;;;5034767;28;20104;-73
2022/04/05 14:33:09;;;;;;;24.80;15.30;;;12.50;65.70;;;;;;5036030;28;20034;-75
2022/04/05 14:35:36;;;;;;;16.95;14.50;;;12.50;65.90;;;;;;5033636;28;20088;-73
2022/04/05 14:38:02;;;;;;;19.50;14.18;;;12.60;65.80;;;;;;5035349;28;20088;-73
2022/04/05 14:40:28;;;;;;;21.42;14.32;;;12.60;64.70;;;;;;5035519;28;20393;-74
2022/04/05 14:42:53;;;;;;;18.45;12.63;;;12.60;64.80;;;;;;5033748;28;20081;-73
2022/04/05 14:45:21;;;;;;;17.80;13.27;;;12.60;64.60;;;;;;5031765;28;20052;-74
2022/04/05 14:47:47;;;;;;;17.75;13.90;;;12.60;64.30;;;;;;5031051;28;20508;-73
2022/04/05 14:50:13;;;;;;;18.75;14.32;;;12.60;64.00;;;;;;5031274;28;20030;-73
2022/04/05 14:52:39;;;;;;;18.63;14.23;;;12.60;64.70;;;;;;5031678;28;20532;-73
2022/04/05 14:55:06;;;;;;;17.08;13.52;;;12.60;65.00;;;;;;5033687;28;20240;-75